Time;durP1;ratioP1;P1;durP2;ratioP2;P2;SDS_P1;SDS_P2;PMS_P1;PMS_P2;Temp;Humidity;BMP_temperature;BMP_pressure;BME280_temperature;BME280_humidity;BME280_pressure;Samples;Min_cycle;Max_cycle;Signal;HPM_P1;HPM_P2
2022/02/21 00:00:54;;;;;;;0.70;0.30;;;;;;;8.82;95.90;97988.31;108433;1273;72379;-80
2022/02/21 00:03:21;;;;;;;3.60;1.00;;;;;;;8.84;95.98;97985.11;108430;1273;71621;-81
2022/02/21 00:05:49;;;;;;;2.40;0.40;;;;;;;8.86;95.55;97952.25;108392;1273;60406;-82
2022/02/21 00:08:16;;;;;;;2.30;0.60;;;;;;;8.86;96.08;97955.35;108386;1273;60597;-80
2022/02/21 00:10:43;;;;;;;0.60;0.20;;;;;;;8.89;95.02;97961.92;108382;1273;75078;-80
2022/02/21 00:13:11;;;;;;;0.90;0.30;;;;;;;8.95;94.53;97949.85;108302;1273;72788;-80
2022/02/21 00:15:38;;;;;;;1.10;0.20;;;;;;;8.99;94.25;97934.31;108330;1273;72895;-80
2022/02/21 00:18:05;;;;;;;2.80;0.20;;;;;;;9.02;93.78;97979.33;108432;1273;62192;-79
2022/02/21 00:20:32;;;;;;;5.20;0.70;;;;;;;9.00;96.02;98033.27;108399;1273;60571;-79
2022/02/21 00:22:59;;;;;;;0.60;0.10;;;;;;;8.49;96.43;98158.98;108408;1273;74822;-79
2022/02/21 00:25:26;;;;;;;0.90;0.20;;;;;;;7.60;92.64;98185.27;108403;1273;70049;-77
2022/02/21 00:27:53;;;;;;;0.70;0.30;;;;;;;6.87;95.41;98184.17;108442;1274;73991;-78
2022/02/21 00:30:19;;;;;;;0.90;0.20;;;;;;;6.34;98.00;98187.16;108413;1274;61401;-80
2022/02/21 00:32:45;;;;;;;1.10;0.20;;;;;;;5.95;99.81;98203.92;108401;1273;59113;-81
2022/02/21 00:35:12;;;;;;;0.30;0.20;;;;;;;5.66;100.00;98224.12;108400;1274;59841;-78
2022/02/21 00:37:39;;;;;;;0.20;0.20;;;;;;;5.41;100.00;98226.36;108324;1273;72361;-82
2022/02/21 00:42:31;;;;;;;0.10;0.10;;;;;;;5.11;100.00;98218.85;108571;1263;60295;-81
2022/02/21 00:44:59;;;;;;;1.90;0.30;;;;;;;5.01;100.00;98237.16;108602;1271;59981;-79
2022/02/21 00:47:27;;;;;;;1.10;0.40;;;;;;;4.94;100.00;98215.96;108610;1273;76100;-82
2022/02/21 00:49:54;;;;;;;0.50;0.30;;;;;;;4.87;100.00;98203.34;108399;1271;71387;-78
2022/02/21 00:52:22;;;;;;;0.60;0.20;;;;;;;4.83;100.00;98216.02;108455;1271;73100;-79
2022/02/21 00:54:48;;;;;;;3.90;0.90;;;;;;;4.81;100.00;98210.44;108463;1273;61132;-79
2022/02/21 00:57:15;;;;;;;3.70;0.30;;;;;;;4.81;100.00;98224.51;108393;1273;61992;-76
2022/02/21 00:59:43;;;;;;;0.30;0.20;;;;;;;4.82;100.00;98239.33;108421;1273;60316;-78
2022/02/21 01:02:10;;;;;;;1.40;0.20;;;;;;;4.90;100.00;98298.64;108485;1272;72852;-76
2022/02/21 01:04:38;;;;;;;3.90;0.30;;;;;;;4.97;100.00;98286.38;108262;1273;73939;-77
2022/02/21 01:07:04;;;;;;;0.80;0.30;;;;;;;5.01;100.00;98291.20;108521;1271;60383;-77
2022/02/21 01:09:31;;;;;;;0.50;0.30;;;;;;;5.07;100.00;98285.67;108439;1271;61663;-76
2022/02/21 01:11:57;;;;;;;0.40;0.20;;;;;;;5.12;100.00;98283.02;108552;1271;59199;-77
2022/02/21 01:14:24;;;;;;;0.30;0.10;;;;;;;5.15;100.00;98264.27;108411;1273;59318;-76
2022/02/21 01:16:50;;;;;;;1.90;0.20;;;;;;;5.16;100.00;98281.98;108392;1273;59108;-78
2022/02/21 01:19:17;;;;;;;0.20;0.10;;;;;;;5.19;100.00;98275.80;108541;1271;59096;-80
2022/02/21 01:21:43;;;;;;;2.50;0.60;;;;;;;5.20;100.00;98282.67;108493;1271;59206;-78
2022/02/21 01:24:10;;;;;;;0.20;0.20;;;;;;;5.20;100.00;98296.17;108406;1271;59513;-78
2022/02/21 01:26:36;;;;;;;2.40;0.20;;;;;;;5.21;100.00;98294.11;108440;1273;59128;-78
2022/02/21 01:29:03;;;;;;;3.20;0.60;;;;;;;5.22;100.00;98283.92;108404;1271;59631;-78
2022/02/21 01:31:30;;;;;;;0.60;0.20;;;;;;;5.24;100.00;98298.13;108427;1273;59187;-78
2022/02/21 01:33:57;;;;;;;0.20;0.10;;;;;;;5.27;100.00;98290.29;108440;1271;60333;-80
2022/02/21 01:36:23;;;;;;;0.60;0.40;;;;;;;5.29;100.00;98299.06;108396;1272;75929;-80
2022/02/21 01:38:50;;;;;;;1.20;0.30;;;;;;;5.29;100.00;98305.16;108473;1271;59507;-80
2022/02/21 01:41:16;;;;;;;0.50;0.30;;;;;;;5.30;100.00;98304.86;108288;1271;61153;-77
2022/02/21 01:43:45;;;;;;;0.40;0.20;;;;;;;5.33;100.00;98316.11;108463;1272;59866;-78
2022/02/21 01:46:11;;;;;;;0.80;0.30;;;;;;;5.37;100.00;98304.17;108450;1273;61921;-77
2022/02/21 01:48:39;;;;;;;0.80;0.30;;;;;;;5.38;100.00;98304.70;108320;1264;75408;-78
2022/02/21 01:51:07;;;;;;;1.20;0.30;;;;;;;5.40;100.00;98317.93;108596;1271;72319;-78
2022/02/21 01:53:33;;;;;;;0.50;0.30;;;;;;;5.41;100.00;98318.73;108531;1271;73994;-80
2022/02/21 01:56:02;;;;;;;0.20;0.10;;;;;;;5.42;99.99;98324.52;108601;1271;59083;-76
2022/02/21 01:58:29;;;;;;;1.20;0.20;;;;;;;5.44;99.39;98317.38;108577;1270;60286;-78
2022/02/21 02:00:55;;;;;;;0.60;0.20;;;;;;;5.48;98.78;98347.88;108624;1271;59068;-78
2022/02/21 02:03:22;;;;;;;1.10;0.40;;;;;;;5.50;97.83;98342.77;108627;1270;73321;-80
2022/02/21 02:05:49;;;;;;;0.50;0.10;;;;;;;5.51;97.44;98355.25;108612;1270;74318;-79
2022/02/21 02:08:15;;;;;;;0.80;0.20;;;;;;;5.51;96.35;98364.11;108595;1270;60493;-78
2022/02/21 02:10:42;;;;;;;1.00;0.20;;;;;;;5.52;96.90;98359.30;108631;1270;60335;-79
2022/02/21 02:13:09;;;;;;;2.70;0.60;;;;;;;5.50;96.26;98359.08;108590;1270;74918;-80
2022/02/21 02:15:35;;;;;;;0.30;0.20;;;;;;;5.50;96.15;98374.95;108620;1270;59194;-79
2022/02/21 02:18:02;;;;;;;1.80;0.50;;;;;;;5.51;95.66;98389.80;108592;1270;58966;-80
2022/02/21 02:20:29;;;;;;;3.00;0.40;;;;;;;5.50;96.33;98374.26;108478;1271;60183;-80
2022/02/21 02:22:56;;;;;;;3.20;0.70;;;;;;;5.47;96.44;98367.69;108616;1270;59529;-78
2022/02/21 02:25:22;;;;;;;1.50;0.40;;;;;;;5.42;96.13;98374.23;108545;1271;76642;-79
2022/02/21 02:27:49;;;;;;;1.00;0.50;;;;;;;5.37;97.76;98390.09;108604;1270;59548;-80
2022/02/21 02:30:15;;;;;;;0.90;0.10;;;;;;;5.24;99.18;98425.06;108662;1271;59368;-79
2022/02/21 02:32:46;;;;;;;6.20;1.00;;;;;;;5.07;98.03;98450.25;108573;1270;59443;-80
2022/02/21 02:35:12;;;;;;;3.70;0.90;;;;;;;4.94;96.23;98425.08;108610;1271;60565;-77
2022/02/21 02:37:39;;;;;;;5.00;0.70;;;;;;;4.81;96.15;98419.12;108504;1268;74981;-77
2022/02/21 02:40:06;;;;;;;2.60;0.80;;;;;;;4.72;95.56;98422.11;108627;1270;59113;-81
2022/02/21 02:42:33;;;;;;;5.40;0.80;;;;;;;4.64;96.17;98420.96;108588;1271;72957;-79
2022/02/21 02:44:59;;;;;;;2.20;0.40;;;;;;;4.58;96.96;98413.03;108432;1271;61380;-79
2022/02/21 02:47:25;;;;;;;1.20;0.40;;;;;;;4.52;97.21;98415.86;108612;1270;58513;-79
2022/02/21 02:49:52;;;;;;;2.80;0.60;;;;;;;4.49;96.97;98425.67;108583;1268;60080;-77
2022/02/21 02:52:19;;;;;;;1.60;0.30;;;;;;;4.48;95.99;98434.67;108460;1271;74532;-77
2022/02/21 02:54:45;;;;;;;4.10;0.80;;;;;;;4.48;95.97;98440.98;108481;1270;58482;-79
2022/02/21 02:57:11;;;;;;;1.80;0.80;;;;;;;4.47;96.71;98435.03;108438;1271;59659;-77
2022/02/21 02:59:38;;;;;;;1.60;0.50;;;;;;;4.44;95.27;98427.53;108526;1270;58955;-79
2022/02/21 03:06:01;;;;;;;5.40;0.90;;;;;;;4.41;93.96;98454.48;108449;1269;70600;-81
2022/02/21 03:08:32;;;;;;;9.40;1.10;;;;;;;4.43;94.21;98453.89;108323;1271;72673;-77
2022/02/21 03:11:23;;;;;;;3.30;0.70;;;;;;;4.39;95.16;98492.47;108342;1271;61428;-79
2022/02/21 03:13:49;;;;;;;4.60;0.60;;;;;;;3.94;95.92;98511.42;107929;1270;60651;-76
2022/02/21 03:16:17;;;;;;;3.90;0.50;;;;;;;3.46;96.38;98586.89;107967;1270;59252;-80
2022/02/21 03:18:44;;;;;;;2.20;0.60;;;;;;;3.02;97.87;98529.96;108006;1270;71465;-78
2022/02/21 03:21:11;;;;;;;3.00;1.50;;;;;;;2.67;99.86;98508.85;107945;1271;73098;-79
2022/02/21 03:23:37;;;;;;;0.70;0.70;;;;;;;2.48;100.00;98499.23;107934;1271;59651;-77
2022/02/21 03:26:06;;;;;;;2.10;0.80;;;;;;;2.38;100.00;98535.77;108087;1270;59279;-81
2022/02/21 03:28:33;;;;;;;2.70;0.70;;;;;;;2.38;100.00;98498.02;107990;1271;74856;-76
2022/02/21 03:30:59;;;;;;;4.60;1.20;;;;;;;2.37;100.00;98491.20;107694;1271;71428;-76
2022/02/21 03:33:26;;;;;;;3.50;0.60;;;;;;;2.37;100.00;98507.17;107994;1270;59624;-78
2022/02/21 03:35:52;;;;;;;4.10;1.30;;;;;;;2.39;100.00;98505.20;107995;1270;59082;-78
2022/02/21 03:38:19;;;;;;;4.90;1.20;;;;;;;2.44;100.00;98500.66;108072;1270;59561;-78
2022/02/21 03:40:47;;;;;;;8.60;1.60;;;;;;;2.50;100.00;98498.92;107908;1270;75041;-79
2022/02/21 03:43:13;;;;;;;5.40;1.40;;;;;;;2.57;100.00;98500.38;108000;1270;71422;-80
2022/02/21 03:45:40;;;;;;;8.40;1.20;;;;;;;2.64;100.00;98512.48;107947;1271;74773;-78
2022/02/21 03:48:06;;;;;;;20.70;2.40;;;;;;;2.68;100.00;98508.19;108042;1270;59154;-77
2022/02/21 03:50:33;;;;;;;9.70;1.20;;;;;;;2.71;100.00;98524.20;108044;1271;59184;-79
2022/02/21 03:52:59;;;;;;;9.80;1.20;;;;;;;2.77;100.00;98526.45;107995;1270;59314;-80
2022/02/21 03:55:26;;;;;;;6.50;1.70;;;;;;;2.80;100.00;98526.34;107944;1272;59820;-79
2022/02/21 03:57:52;;;;;;;10.10;1.80;;;;;;;2.83;100.00;98518.08;107939;1271;59285;-79
2022/02/21 04:00:18;;;;;;;7.60;1.80;;;;;;;2.88;100.00;98523.76;108038;1271;59202;-79
2022/02/21 04:02:45;;;;;;;6.50;1.00;;;;;;;2.92;100.00;98528.66;107933;1273;59125;-79
2022/02/21 04:05:14;;;;;;;11.90;2.10;;;;;;;2.98;99.63;98532.52;108002;1270;59053;-79
2022/02/21 04:07:42;;;;;;;8.20;1.70;;;;;;;3.02;99.94;98525.14;108037;1270;71618;-78
2022/02/21 04:10:10;;;;;;;14.20;2.10;;;;;;;3.05;99.41;98530.42;108017;1270;73382;-78
2022/02/21 04:12:37;;;;;;;6.60;0.90;;;;;;;3.07;99.28;98524.11;108435;1271;61889;-79
2022/02/21 04:15:06;;;;;;;12.50;1.40;;;;;;;3.08;97.30;98517.90;108466;1270;60298;-78
2022/02/21 04:17:44;;;;;;;6.10;1.00;;;;;;;3.12;95.89;98520.23;108478;1271;75974;-79
2022/02/21 04:20:15;;;;;;;9.50;2.00;;;;;;;3.14;95.85;98525.73;108517;1271;72527;-79
2022/02/21 04:22:42;;;;;;;4.90;1.00;;;;;;;3.14;96.14;98537.02;108472;1271;71751;-79
2022/02/21 04:25:10;;;;;;;5.40;1.30;;;;;;;3.13;95.51;98529.88;108497;1271;61672;-79
2022/02/21 04:27:41;;;;;;;8.10;2.30;;;;;;;3.16;96.04;98539.98;108540;1271;60843;-78
2022/02/21 04:30:08;;;;;;;7.80;2.00;;;;;;;3.15;96.33;98547.89;108569;1271;76034;-79
2022/02/21 04:32:39;;;;;;;13.10;2.10;;;;;;;3.17;95.99;98551.58;108546;1271;71324;-79
2022/02/21 04:35:06;;;;;;;6.80;1.50;;;;;;;3.19;95.54;98558.63;108539;1270;72653;-79
2022/02/21 04:37:34;;;;;;;10.20;1.80;;;;;;;3.21;95.03;98575.50;108527;1270;61347;-79
2022/02/21 04:40:01;;;;;;;10.40;1.90;;;;;;;3.26;94.07;98565.68;108529;1271;59847;-80
2022/02/21 04:42:28;;;;;;;8.00;1.50;;;;;;;3.29;92.79;98574.31;108552;1271;75902;-80
2022/02/21 04:44:54;;;;;;;14.70;1.50;;;;;;;3.29;93.00;98591.65;108572;1270;71351;-80
2022/02/21 04:47:25;;;;;;;4.60;1.40;;;;;;;3.28;92.39;98582.25;108581;1263;59501;31
2022/02/21 04:52:50;;;;;;;16.70;2.60;;;;;;;3.28;90.92;98590.15;108421;1265;59146;-80
2022/02/21 04:55:17;;;;;;;12.90;1.80;;;;;;;3.28;89.70;98599.13;108388;1274;59451;-79
2022/02/21 04:57:44;;;;;;;13.30;1.80;;;;;;;3.30;90.29;98594.33;108419;1274;71845;-80
2022/02/21 05:00:12;;;;;;;11.10;1.50;;;;;;;3.29;89.63;98595.96;108375;1274;59166;-79
2022/02/21 05:02:39;;;;;;;13.70;1.60;;;;;;;3.29;88.46;98608.02;108331;1276;64167;-80
2022/02/21 05:05:10;;;;;;;6.00;1.40;;;;;;;3.35;88.16;98611.16;108204;1274;59991;-80
2022/02/21 05:07:38;;;;;;;8.20;1.10;;;;;;;3.36;88.40;98603.29;108281;1274;75648;-80
2022/02/21 05:10:05;;;;;;;8.40;1.90;;;;;;;3.38;85.80;98614.47;108344;1274;71217;-80
2022/02/21 05:12:32;;;;;;;11.60;1.50;;;;;;;3.41;84.69;98636.21;108187;1276;74524;-80
2022/02/21 05:14:58;;;;;;;7.60;1.10;;;;;;;3.41;83.00;98633.35;108309;1276;61254;-80
2022/02/21 05:17:25;;;;;;;12.00;1.60;;;;;;;3.40;80.30;98623.50;108438;1274;59061;-80
2022/02/21 05:19:51;;;;;;;3.70;1.10;;;;;;;3.37;78.86;98627.61;108373;1274;58970;-82
2022/02/21 05:22:19;;;;;;;5.00;1.30;;;;;;;3.35;77.73;98653.35;108379;1274;59117;-80
2022/02/21 05:24:45;;;;;;;5.40;0.80;;;;;;;3.32;78.64;98662.92;108411;1274;73946;-82
2022/02/21 05:27:12;;;;;;;5.80;0.90;;;;;;;3.20;81.81;98696.81;108390;1272;59174;-82
2022/02/21 05:29:38;;;;;;;6.80;1.40;;;;;;;3.02;83.83;98701.19;108367;1274;59631;-81
2022/02/21 05:32:05;;;;;;;3.60;1.00;;;;;;;2.85;85.29;98691.95;108371;1273;59564;-80
2022/02/21 05:34:31;;;;;;;4.00;1.30;;;;;;;2.70;87.63;98693.88;108378;1274;59573;-82
2022/02/21 05:36:58;;;;;;;5.40;1.20;;;;;;;2.46;90.40;98706.78;108363;1274;59235;-82
2022/02/21 05:39:24;;;;;;;7.40;1.60;;;;;;;2.27;92.22;98693.76;108384;1274;59107;-81
2022/02/21 05:41:51;;;;;;;5.80;1.10;;;;;;;2.09;93.19;98703.98;108408;1274;59015;-80
2022/02/21 05:44:17;;;;;;;7.10;1.30;;;;;;;1.99;94.39;98701.03;108373;1274;59330;-80
2022/02/21 05:46:43;;;;;;;3.70;1.30;;;;;;;1.90;95.70;98677.82;108330;1274;58505;-79
2022/02/21 05:49:11;;;;;;;5.40;0.60;;;;;;;1.81;96.22;98672.00;108269;1274;59986;-80
2022/02/21 05:51:39;;;;;;;4.50;0.90;;;;;;;1.75;96.65;98666.86;108243;1276;60041;-79
2022/02/21 05:54:05;;;;;;;7.50;1.90;;;;;;;1.71;96.39;98673.98;108254;1276;61828;-80
2022/02/21 05:56:32;;;;;;;8.40;1.50;;;;;;;1.68;95.94;98683.87;108371;1276;76290;-79
2022/02/21 05:58:59;;;;;;;17.40;2.60;;;;;;;1.69;95.39;98683.47;108342;1276;71384;-78
2022/02/21 06:01:25;;;;;;;8.30;1.10;;;;;;;1.69;95.29;98696.55;108317;1276;59076;-81
2022/02/21 06:03:51;;;;;;;3.20;0.90;;;;;;;1.69;95.15;98698.16;108178;1276;59949;-81
2022/02/21 06:06:18;;;;;;;4.90;0.90;;;;;;;1.70;95.54;98694.64;108239;1275;58872;-80
2022/02/21 06:08:44;;;;;;;11.90;2.00;;;;;;;1.71;95.61;98693.11;108217;1275;59327;-80
2022/02/21 06:11:11;;;;;;;9.60;1.80;;;;;;;1.71;95.48;98693.79;108227;1275;60384;-80
2022/02/21 06:13:37;;;;;;;9.90;1.80;;;;;;;1.72;95.54;98705.58;108223;1275;60082;-80
2022/02/21 06:16:06;;;;;;;15.50;2.00;;;;;;;1.69;95.49;98702.38;108224;1275;59552;-80
2022/02/21 06:18:33;;;;;;;7.90;1.50;;;;;;;1.69;95.44;98705.67;108209;1275;60015;-79
2022/02/21 06:21:00;;;;;;;9.20;1.50;;;;;;;1.70;94.98;98701.60;108229;1275;73987;-79
2022/02/21 06:23:26;;;;;;;5.00;1.40;;;;;;;1.70;94.88;98710.52;108224;1276;71669;-80
2022/02/21 06:25:53;;;;;;;14.00;1.70;;;;;;;1.69;94.83;98710.49;108303;1275;59157;-80
2022/02/21 06:28:20;;;;;;;3.90;1.00;;;;;;;1.71;94.35;98723.66;108175;1275;59043;-79
2022/02/21 06:30:46;;;;;;;5.90;1.50;;;;;;;1.75;94.03;98721.45;108277;1276;59272;-81
2022/02/21 06:33:12;;;;;;;11.20;2.30;;;;;;;1.82;93.56;98724.52;108255;1276;59179;-80
2022/02/21 06:35:41;;;;;;;13.10;2.80;;;;;;;1.91;92.46;98731.48;108292;1276;59146;-79
2022/02/21 06:38:07;;;;;;;5.80;2.00;;;;;;;1.98;92.07;98718.23;108379;1276;73027;-80
2022/02/21 06:40:34;;;;;;;6.20;1.20;;;;;;;2.06;90.34;98722.02;108406;1276;59046;-79
2022/02/21 06:43:01;;;;;;;2.20;1.50;;;;;;;2.11;89.28;98714.16;108361;1276;60294;-79
2022/02/21 06:45:28;;;;;;;4.70;1.70;;;;;;;2.14;88.85;98725.77;108410;1276;75499;-80
2022/02/21 06:47:56;;;;;;;7.30;2.00;;;;;;;2.19;87.58;98727.83;108182;1276;70360;-80
2022/02/21 06:50:24;;;;;;;12.30;2.00;;;;;;;2.20;87.36;98719.65;108423;1276;73154;-80
2022/02/21 06:52:51;;;;;;;13.10;2.40;;;;;;;2.20;86.86;98728.70;108309;1276;62491;-80
2022/02/21 06:55:21;;;;;;;19.00;3.80;;;;;;;2.21;86.62;98723.02;108354;1276;60723;-79
2022/02/21 06:57:49;;;;;;;8.80;2.30;;;;;;;2.22;86.66;98727.98;108341;1276;75012;-80
2022/02/21 07:00:17;;;;;;;9.20;2.90;;;;;;;2.22;86.62;98727.10;108198;1276;72685;-80
2022/02/21 07:02:44;;;;;;;16.50;4.70;;;;;;;2.25;85.97;98741.13;108396;1276;72874;-80
2022/02/21 07:05:11;;;;;;;10.00;2.60;;;;;;;2.27;86.39;98736.46;108245;1276;62274;-80
2022/02/21 07:07:37;;;;;;;13.00;3.20;;;;;;;2.28;86.38;98729.20;108281;1275;60542;-80
2022/02/21 07:10:05;;;;;;;9.50;3.40;;;;;;;2.30;86.74;98736.52;108345;1276;59096;-80
2022/02/21 07:12:32;;;;;;;15.90;2.20;;;;;;;2.33;86.05;98730.42;108352;1275;71495;-79
2022/02/21 07:14:59;;;;;;;22.60;3.20;;;;;;;2.35;86.12;98738.73;108303;1276;72919;-80
2022/02/21 07:17:26;;;;;;;6.90;1.80;;;;;;;2.37;85.70;98735.19;108399;1274;61603;-80
2022/02/21 07:19:55;;;;;;;10.30;1.60;;;;;;;2.41;86.06;98745.24;108398;1276;60635;-80
2022/02/21 07:22:24;;;;;;;10.00;1.60;;;;;;;2.43;85.49;98759.80;108341;1277;74911;-79
2022/02/21 07:24:51;;;;;;;6.60;1.60;;;;;;;2.49;85.45;98757.08;108382;1276;72582;-79
2022/02/21 07:27:17;;;;;;;15.80;2.80;;;;;;;2.54;85.06;98758.62;108339;1276;73406;-79
2022/02/21 07:29:44;;;;;;;12.60;2.70;;;;;;;2.58;84.55;98767.60;108343;1276;59074;-80
2022/02/21 07:32:10;;;;;;;14.20;1.90;;;;;;;2.64;84.10;98762.07;108422;1274;60521;-79
2022/02/21 07:34:37;;;;;;;13.40;2.30;;;;;;;2.70;83.96;98761.98;108379;1275;73294;-79
2022/02/21 07:37:04;;;;;;;9.50;2.40;;;;;;;2.74;83.14;98758.48;108432;1276;59106;-80
2022/02/21 07:39:32;;;;;;;10.20;2.00;;;;;;;2.79;82.79;98761.09;107972;1276;322868;-81
2022/02/21 07:41:58;;;;;;;10.70;2.20;;;;;;;2.83;81.99;98760.77;108271;1276;61304;-80
2022/02/21 07:44:25;;;;;;;12.10;2.20;;;;;;;2.87;81.80;98764.38;108418;1274;59053;-80
2022/02/21 07:46:51;;;;;;;17.90;3.80;;;;;;;2.92;81.20;98764.02;108356;1275;75098;-79
2022/02/21 07:49:19;;;;;;;18.50;3.60;;;;;;;2.96;81.44;98763.83;108399;1276;70347;-79
2022/02/21 07:51:46;;;;;;;15.10;2.70;;;;;;;3.02;80.37;98763.73;108402;1274;72875;-80
2022/02/21 07:54:13;;;;;;;15.80;2.90;;;;;;;3.09;80.35;98779.03;108337;1276;61137;-80
2022/02/21 07:57:01;;;;;;;10.20;2.30;;;;;;;3.17;79.57;98777.17;108458;1276;62645;-80
2022/02/21 07:59:28;;;;;;;19.00;1.70;;;;;;;3.24;79.29;98775.40;108302;1277;74945;-79
2022/02/21 08:01:54;;;;;;;10.60;2.60;;;;;;;3.33;79.81;98769.14;108384;1276;71158;-80
2022/02/21 08:04:27;;;;;;;16.00;2.60;;;;;;;3.41;78.97;98770.09;108414;1274;74270;-80
2022/02/21 08:06:53;;;;;;;20.70;1.90;;;;;;;3.47;78.51;98769.30;108364;1275;61421;-80
2022/02/21 08:09:22;;;;;;;17.10;2.80;;;;;;;3.53;78.20;98764.40;108392;1275;61618;-81
2022/02/21 08:11:49;;;;;;;8.00;1.50;;;;;;;3.59;78.53;98768.52;108455;1275;73610;-79
2022/02/21 08:14:16;;;;;;;11.30;1.80;;;;;;;3.63;77.22;98779.97;108406;1274;71063;-80
2022/02/21 08:16:42;;;;;;;15.20;2.80;;;;;;;3.66;77.36;98772.14;108406;1274;59551;-79
2022/02/21 08:19:10;;;;;;;9.40;1.60;;;;;;;3.66;76.97;98764.80;108341;1276;62408;-79
2022/02/21 08:21:37;;;;;;;13.90;1.90;;;;;;;3.66;77.30;98772.06;108354;1276;60879;-80
2022/02/21 08:24:06;;;;;;;5.50;1.30;;;;;;;3.67;76.59;98785.60;108341;1277;75997;-79
2022/02/21 08:26:33;;;;;;;13.70;2.30;;;;;;;3.71;76.24;98787.15;108301;1274;70264;-82
2022/02/21 08:29:00;;;;;;;16.60;1.90;;;;;;;3.74;75.31;98786.14;108411;1275;72737;-80
2022/02/21 08:31:26;;;;;;;16.80;2.80;;;;;;;3.77;75.60;98787.70;108420;1274;61613;-80
2022/02/21 08:33:53;;;;;;;12.10;2.90;;;;;;;3.82;75.91;98772.32;108419;1274;59037;-80
2022/02/21 08:36:19;;;;;;;11.90;2.30;;;;;;;3.87;75.64;98789.14;108420;1276;59041;-80
2022/02/21 08:38:46;;;;;;;12.70;3.60;;;;;;;3.92;75.06;98772.30;108358;1275;59201;-79
2022/02/21 08:41:12;;;;;;;4.80;1.30;;;;;;;3.98;75.06;98804.44;108386;1276;59077;-80
2022/02/21 08:43:39;;;;;;;13.10;2.20;;;;;;;4.02;74.43;98789.27;108318;1274;59143;-80
2022/02/21 08:46:05;;;;;;;12.20;2.50;;;;;;;4.06;73.85;98791.41;108268;1275;59137;-80
2022/02/21 08:48:54;;;;;;;15.10;2.70;;;;;;;4.07;74.29;98784.15;108426;1274;77403;-79
2022/02/21 08:51:21;;;;;;;23.60;3.70;;;;;;;4.10;73.93;98776.48;108393;1274;71338;-78
2022/02/21 08:53:47;;;;;;;9.40;2.00;;;;;;;4.15;73.80;98782.53;108388;1276;74166;-78
2022/02/21 08:56:14;;;;;;;15.00;3.20;;;;;;;4.19;73.08;98788.23;108381;1275;59194;-79
2022/02/21 08:58:40;;;;;;;14.90;2.80;;;;;;;4.23;73.47;98800.55;108412;1274;59231;-78
2022/02/21 09:01:07;;;;;;;9.60;3.10;;;;;;;4.26;73.25;98795.31;108389;1276;58893;-77
2022/02/21 09:03:33;;;;;;;7.60;1.80;;;;;;;4.31;73.12;98797.23;108357;1276;71344;-79
2022/02/21 09:06:00;;;;;;;24.10;3.40;;;;;;;4.37;73.52;98796.67;108315;1277;59019;-79
2022/02/21 09:08:31;;;;;;;16.90;3.10;;;;;;;4.43;73.60;98784.98;108352;1277;58506;-79
2022/02/21 09:10:58;;;;;;;17.00;2.80;;;;;;;4.46;73.22;98792.80;108416;1275;59433;-79
2022/02/21 09:13:25;;;;;;;13.00;3.10;;;;;;;4.47;71.70;98803.92;108235;1277;75484;-79
2022/02/21 09:15:51;;;;;;;25.40;3.50;;;;;;;4.51;72.13;98792.33;108305;1276;71526;-79
2022/02/21 09:18:18;;;;;;;9.60;2.20;;;;;;;4.53;72.56;98797.72;108250;1277;72721;-79
2022/02/21 09:20:45;;;;;;;5.60;1.60;;;;;;;4.54;72.46;98786.10;108332;1276;58977;-79
2022/02/21 09:23:11;;;;;;;9.70;2.10;;;;;;;4.58;71.74;98777.05;108414;1276;61911;-79
2022/02/21 09:25:39;;;;;;;8.70;2.40;;;;;;;4.61;71.30;98774.48;108396;1276;76175;-77
2022/02/21 09:28:06;;;;;;;13.50;2.20;;;;;;;4.63;70.62;98788.08;108479;1264;59104;-79
2022/02/21 09:30:32;;;;;;;14.50;3.20;;;;;;;4.65;70.33;98788.46;108518;1274;59074;-78
2022/02/21 09:32:59;;;;;;;11.50;3.00;;;;;;;4.70;70.52;98788.21;108496;1274;59210;-78
2022/02/21 09:35:25;;;;;;;11.00;3.10;;;;;;;4.77;70.39;98792.61;108527;1274;59112;-78
2022/02/21 09:37:52;;;;;;;12.30;3.20;;;;;;;4.85;70.28;98779.77;108521;1274;59178;-78
2022/02/21 09:40:22;;;;;;;10.50;2.20;;;;;;;4.94;70.10;98786.17;108494;1276;59048;-79
2022/02/21 09:42:49;;;;;;;6.30;1.60;;;;;;;5.00;69.70;98780.30;108458;1276;72103;-79
2022/02/21 09:45:19;;;;;;;14.00;2.40;;;;;;;5.00;69.61;98790.20;108393;1276;62239;-78
2022/02/21 09:47:51;;;;;;;9.30;2.30;;;;;;;5.05;69.14;98797.16;108266;1277;61496;-79
2022/02/21 09:50:37;;;;;;;15.50;3.50;;;;;;;5.08;68.50;98792.46;108401;1277;75682;-78
2022/02/21 09:53:04;;;;;;;9.30;2.80;;;;;;;5.15;69.35;98784.05;108415;1274;71211;-77
2022/02/21 09:55:32;;;;;;;11.80;2.80;;;;;;;5.21;69.01;98797.86;108413;1276;72473;-78
2022/02/21 09:58:00;;;;;;;16.80;3.90;;;;;;;5.27;69.21;98776.47;108470;1274;63072;-78
2022/02/21 10:00:28;;;;;;;16.20;3.30;;;;;;;5.37;69.26;98795.66;108313;1277;59511;-78
2022/02/21 10:02:55;;;;;;;16.50;3.30;;;;;;;5.42;69.01;98797.05;108470;1274;76018;-78
2022/02/21 10:05:25;;;;;;;18.20;4.50;;;;;;;5.48;69.61;98797.55;108531;1274;72084;-78
2022/02/21 10:07:52;;;;;;;12.40;4.10;;;;;;;5.57;68.33;98793.33;108449;1276;73866;-78
2022/02/21 10:10:22;;;;;;;9.20;2.30;;;;;;;5.58;67.40;98789.33;108324;1274;62041;-78
2022/02/21 10:13:03;;;;;;;16.40;4.70;;;;;;;5.56;68.10;98787.61;108421;1275;60658;-78
2022/02/21 10:15:32;;;;;;;12.40;2.90;;;;;;;5.53;67.14;98792.21;108500;1274;75125;-78
2022/02/21 10:18:18;;;;;;;14.70;3.10;;;;;;;5.50;66.76;98778.87;108431;1274;72530;-79
2022/02/21 10:21:00;;;;;;;15.00;4.40;;;;;;;5.55;67.74;98783.11;108474;1274;73949;-79
2022/02/21 10:23:30;;;;;;;5.50;1.60;;;;;;;5.51;66.57;98784.79;108155;1277;62698;-78
2022/02/21 10:26:07;;;;;;;17.20;2.80;;;;;;;5.44;66.62;98791.44;108267;1274;63141;-79
2022/02/21 10:28:41;;;;;;;12.90;3.20;;;;;;;5.41;66.51;98799.30;108356;1274;75572;-78
2022/02/21 10:31:12;;;;;;;10.70;2.10;;;;;;;5.38;65.87;98801.14;108365;1274;71039;-79
2022/02/21 10:33:46;;;;;;;10.10;2.50;;;;;;;5.34;65.29;98809.99;108386;1274;72888;-78
2022/02/21 10:36:33;;;;;;;8.20;1.90;;;;;;;5.32;66.07;98803.55;108436;1276;62220;-79
2022/02/21 10:39:04;;;;;;;14.30;3.90;;;;;;;5.30;66.72;98796.54;108513;1274;60338;-78
2022/02/21 10:41:43;;;;;;;16.70;3.30;;;;;;;5.25;65.94;98817.92;108501;1274;73426;-77
2022/02/21 10:44:16;;;;;;;12.30;2.80;;;;;;;5.21;66.72;98814.36;108508;1274;72502;-78
2022/02/21 10:47:04;;;;;;;13.40;3.30;;;;;;;5.14;66.74;98820.63;108363;1276;71918;-78
2022/02/21 10:49:52;;;;;;;28.60;6.10;;;;;;;5.06;66.90;98820.15;108318;1274;62438;-77
2022/02/21 10:52:22;;;;;;;11.50;3.60;;;;;;;5.02;67.32;98808.38;108411;1274;60255;-77
2022/02/21 10:54:50;;;;;;;8.70;2.40;;;;;;;4.97;67.04;98815.84;108508;1274;76687;-78
2022/02/21 10:57:18;;;;;;;11.50;2.60;;;;;;;4.95;67.61;98803.39;108376;1274;71418;-77
2022/02/21 10:59:46;;;;;;;12.30;3.70;;;;;;;4.92;67.40;98800.37;108522;1274;73873;-77
2022/02/21 11:02:16;;;;;;;12.80;3.80;;;;;;;4.90;67.37;98798.94;108337;1277;62021;-78
2022/02/21 11:04:43;;;;;;;8.00;3.20;;;;;;;4.91;67.11;98803.98;108479;1275;60597;-78
2022/02/21 11:07:11;;;;;;;5.50;3.60;;;;;;;4.92;67.20;98793.30;108464;1274;75996;-78
2022/02/21 11:09:39;;;;;;;12.60;3.70;;;;;;;4.95;67.32;98794.45;108354;1274;72406;-78
2022/02/21 11:12:07;;;;;;;20.30;6.20;;;;;;;4.96;67.92;98793.15;108450;1274;72717;-78
2022/02/21 11:14:35;;;;;;;19.00;5.30;;;;;;;4.97;67.12;98801.28;108362;1277;63233;-79
2022/02/21 11:17:05;;;;;;;18.50;4.20;;;;;;;5.01;66.87;98793.52;108488;1274;62160;-78
2022/02/21 11:19:32;;;;;;;8.50;2.70;;;;;;;5.04;66.93;98796.80;108495;1277;74958;-77
2022/02/21 11:21:58;;;;;;;10.40;2.90;;;;;;;5.09;66.96;98793.54;108336;1274;72601;-77
2022/02/21 11:24:29;;;;;;;10.10;2.50;;;;;;;5.15;66.89;98766.70;108365;1276;72922;-77
2022/02/21 11:27:11;;;;;;;16.30;3.00;;;;;;;5.21;66.72;98771.22;108452;1274;62206;-78
2022/02/21 11:30:00;;;;;;;13.70;4.10;;;;;;;5.25;66.21;98767.64;108511;1274;60255;-78
2022/02/21 11:32:26;;;;;;;14.00;3.40;;;;;;;5.29;66.62;98763.20;108478;1274;74962;-78
2022/02/21 11:35:15;;;;;;;12.00;2.40;;;;;;;5.27;66.58;98752.10;108478;1274;59938;-77
2022/02/21 11:37:44;;;;;;;11.40;4.80;;;;;;;5.26;67.71;98755.52;108385;1275;74286;-77
2022/02/21 11:40:12;;;;;;;15.60;4.60;;;;;;;5.18;68.07;98760.38;108460;1274;61932;-77
2022/02/21 11:42:48;;;;;;;13.90;3.30;;;;;;;5.13;69.67;98756.47;108495;1276;59262;-78